sensor_id;sensor_type;location;lat;lon;timestamp;pressure;altitude;pressure_sealevel;temperature;humidity
18918;BME280;9591;52.742;13.650;2023-02-15T00:01:27;102756.00;;;6.69;100.00
18918;BME280;9591;52.742;13.650;2023-02-15T00:04:15;102751.88;;;6.86;100.00
18918;BME280;9591;52.742;13.650;2023-02-15T00:07:04;102757.84;;;6.76;100.00
18918;BME280;9591;52.742;13.650;2023-02-15T00:09:52;102747.03;;;6.57;100.00
18918;BME280;9591;52.742;13.650;2023-02-15T00:12:40;102750.97;;;6.84;100.00
18918;BME280;9591;52.742;13.650;2023-02-15T00:15:29;102748.94;;;6.68;100.00
18918;BME280;9591;52.742;13.650;2023-02-15T00:18:17;102754.06;;;6.58;100.00
18918;BME280;9591;52.742;13.650;2023-02-15T00:21:05;102747.13;;;6.64;100.00
18918;BME280;9591;52.742;13.650;2023-02-15T00:23:52;102738.19;;;6.54;100.00
18918;BME280;9591;52.742;13.650;2023-02-15T00:26:40;102740.94;;;6.60;100.00
18918;BME280;9591;52.742;13.650;2023-02-15T00:29:27;102744.56;;;6.68;100.00
18918;BME280;9591;52.742;13.650;2023-02-15T00:32:14;102739.97;;;6.55;100.00
18918;BME280;9591;52.742;13.650;2023-02-15T00:35:02;102738.38;;;6.65;100.00
18918;BME280;9591;52.742;13.650;2023-02-15T00:37:49;102740.19;;;6.69;100.00
18918;BME280;9591;52.742;13.650;2023-02-15T00:40:37;102740.69;;;6.46;100.00
18918;BME280;9591;52.742;13.650;2023-02-15T00:43:25;102739.09;;;6.56;100.00
18918;BME280;9591;52.742;13.650;2023-02-15T00:46:12;102732.66;;;6.37;100.00
18918;BME280;9591;52.742;13.650;2023-02-15T00:48:59;102739.53;;;6.29;100.00
18918;BME280;9591;52.742;13.650;2023-02-15T00:51:47;102739.59;;;6.32;100.00
18918;BME280;9591;52.742;13.650;2023-02-15T00:54:34;102744.06;;;6.38;100.00
18918;BME280;9591;52.742;13.650;2023-02-15T00:57:21;102736.28;;;6.45;100.00
18918;BME280;9591;52.742;13.650;2023-02-15T01:00:09;102729.09;;;6.35;100.00
18918;BME280;9591;52.742;13.650;2023-02-15T01:02:55;102721.97;;;6.28;100.00
18918;BME280;9591;52.742;13.650;2023-02-15T01:05:42;102727.38;;;6.37;100.00
18918;BME280;9591;52.742;13.650;2023-02-15T01:08:30;102718.94;;;6.04;100.00
18918;BME280;9591;52.742;13.650;2023-02-15T01:11:20;102715.59;;;5.67;100.00
18918;BME280;9591;52.742;13.650;2023-02-15T01:14:10;102715.50;;;5.63;100.00
18918;BME280;9591;52.742;13.650;2023-02-15T01:16:59;102717.59;;;5.37;100.00
18918;BME280;9591;52.742;13.650;2023-02-15T01:19:46;102708.72;;;5.32;100.00
18918;BME280;9591;52.742;13.650;2023-02-15T01:22:33;102705.00;;;5.20;100.00
18918;BME280;9591;52.742;13.650;2023-02-15T01:25:22;102706.25;;;4.97;100.00
18918;BME280;9591;52.742;13.650;2023-02-15T01:28:10;102656.28;;;4.55;100.00
18918;BME280;9591;52.742;13.650;2023-02-15T01:30:57;102702.06;;;4.66;100.00
18918;BME280;9591;52.742;13.650;2023-02-15T01:33:45;102703.00;;;4.70;100.00
18918;BME280;9591;52.742;13.650;2023-02-15T01:36:33;102702.28;;;4.39;100.00
18918;BME280;9591;52.742;13.650;2023-02-15T01:39:20;102696.34;;;4.46;100.00
18918;BME280;9591;52.742;13.650;2023-02-15T01:42:11;102686.47;;;4.36;100.00
18918;BME280;9591;52.742;13.650;2023-02-15T01:45:00;102692.03;;;4.12;100.00
18918;BME280;9591;52.742;13.650;2023-02-15T01:47:50;102693.78;;;4.13;100.00
18918;BME280;9591;52.742;13.650;2023-02-15T01:50:41;102692.38;;;4.26;100.00
18918;BME280;9591;52.742;13.650;2023-02-15T01:53:31;102695.81;;;4.23;100.00
18918;BME280;9591;52.742;13.650;2023-02-15T01:56:27;102684.66;;;4.34;100.00
18918;BME280;9591;52.742;13.650;2023-02-15T01:59:21;102684.44;;;4.23;100.00
18918;BME280;9591;52.742;13.650;2023-02-15T02:02:09;102678.63;;;4.02;100.00
18918;BME280;9591;52.742;13.650;2023-02-15T02:05:01;102673.19;;;3.94;100.00
18918;BME280;9591;52.742;13.650;2023-02-15T02:07:54;102665.66;;;3.73;100.00
18918;BME280;9591;52.742;13.650;2023-02-15T02:10:41;102659.72;;;3.80;100.00
18918;BME280;9591;52.742;13.650;2023-02-15T02:13:28;102654.06;;;3.65;100.00
18918;BME280;9591;52.742;13.650;2023-02-15T02:16:20;102646.84;;;3.56;100.00
18918;BME280;9591;52.742;13.650;2023-02-15T02:22:46;102648.44;;;3.18;100.00
18918;BME280;9591;52.742;13.650;2023-02-15T02:26:36;102643.03;;;3.12;100.00
18918;BME280;9591;52.742;13.650;2023-02-15T02:29:49;102653.59;;;3.15;100.00
18918;BME280;9591;52.742;13.650;2023-02-15T02:33:11;102634.69;;;3.25;100.00
18918;BME280;9591;52.742;13.650;2023-02-15T02:36:11;102636.34;;;2.92;100.00
18918;BME280;9591;52.742;13.650;2023-02-15T02:39:12;102631.75;;;2.85;100.00
18918;BME280;9591;52.742;13.650;2023-02-15T02:42:05;102628.13;;;2.80;100.00
18918;BME280;9591;52.742;13.650;2023-02-15T02:44:56;102623.91;;;2.85;100.00
18918;BME280;9591;52.742;13.650;2023-02-15T02:47:47;102611.63;;;2.52;100.00
18918;BME280;9591;52.742;13.650;2023-02-15T02:50:38;102630.31;;;2.66;100.00
18918;BME280;9591;52.742;13.650;2023-02-15T02:53:30;102627.66;;;2.64;100.00
18918;BME280;9591;52.742;13.650;2023-02-15T02:56:21;102630.03;;;2.55;100.00
18918;BME280;9591;52.742;13.650;2023-02-15T02:59:11;102631.22;;;2.67;100.00
18918;BME280;9591;52.742;13.650;2023-02-15T03:02:03;102629.00;;;2.80;100.00
18918;BME280;9591;52.742;13.650;2023-02-15T03:05:00;102629.16;;;2.85;100.00
18918;BME280;9591;52.742;13.650;2023-02-15T03:07:51;102631.06;;;2.90;100.00
18918;BME280;9591;52.742;13.650;2023-02-15T03:10:40;102631.63;;;2.80;100.00
18918;BME280;9591;52.742;13.650;2023-02-15T03:13:28;102626.34;;;2.49;100.00
18918;BME280;9591;52.742;13.650;2023-02-15T03:16:17;102626.78;;;2.36;100.00
18918;BME280;9591;52.742;13.650;2023-02-15T03:19:14;102625.16;;;2.39;100.00
18918;BME280;9591;52.742;13.650;2023-02-15T03:22:04;102612.88;;;2.37;100.00
18918;BME280;9591;52.742;13.650;2023-02-15T03:24:58;102603.03;;;2.28;100.00
18918;BME280;9591;52.742;13.650;2023-02-15T03:27:48;102603.72;;;2.22;100.00
18918;BME280;9591;52.742;13.650;2023-02-15T03:30:39;102591.19;;;2.12;100.00
18918;BME280;9591;52.742;13.650;2023-02-15T03:33:28;102589.25;;;2.07;100.00
18918;BME280;9591;52.742;13.650;2023-02-15T03:36:20;102593.16;;;1.92;100.00
18918;BME280;9591;52.742;13.650;2023-02-15T03:39:15;102592.97;;;1.86;100.00
18918;BME280;9591;52.742;13.650;2023-02-15T03:42:09;102594.72;;;1.87;100.00
18918;BME280;9591;52.742;13.650;2023-02-15T03:45:02;102591.81;;;2.05;100.00
18918;BME280;9591;52.742;13.650;2023-02-15T03:47:51;102597.53;;;1.93;100.00
18918;BME280;9591;52.742;13.650;2023-02-15T03:50:39;102598.03;;;1.82;100.00
18918;BME280;9591;52.742;13.650;2023-02-15T03:53:45;102577.44;;;1.64;100.00
18918;BME280;9591;52.742;13.650;2023-02-15T03:56:33;102589.03;;;1.72;100.00
18918;BME280;9591;52.742;13.650;2023-02-15T03:59:22;102582.75;;;1.67;100.00
18918;BME280;9591;52.742;13.650;2023-02-15T04:02:33;102587.78;;;1.61;100.00
18918;BME280;9591;52.742;13.650;2023-02-15T04:05:23;102586.00;;;1.60;100.00
18918;BME280;9591;52.742;13.650;2023-02-15T04:08:10;102585.00;;;1.56;100.00
18918;BME280;9591;52.742;13.650;2023-02-15T04:10:57;102591.03;;;1.54;100.00
18918;BME280;9591;52.742;13.650;2023-02-15T04:13:44;102588.19;;;1.48;100.00
18918;BME280;9591;52.742;13.650;2023-02-15T04:16:32;102582.88;;;1.45;100.00
18918;BME280;9591;52.742;13.650;2023-02-15T04:19:18;102584.66;;;1.46;100.00
18918;BME280;9591;52.742;13.650;2023-02-15T04:22:22;102572.38;;;1.43;100.00
18918;BME280;9591;52.742;13.650;2023-02-15T04:25:27;102571.47;;;1.43;100.00
18918;BME280;9591;52.742;13.650;2023-02-15T04:28:13;102555.81;;;1.43;100.00
18918;BME280;9591;52.742;13.650;2023-02-15T04:31:00;102564.47;;;1.42;100.00
18918;BME280;9591;52.742;13.650;2023-02-15T04:33:48;102560.16;;;1.42;100.00
18918;BME280;9591;52.742;13.650;2023-02-15T04:36:36;102548.81;;;1.42;100.00
18918;BME280;9591;52.742;13.650;2023-02-15T04:39:22;102545.16;;;1.37;100.00
18918;BME280;9591;52.742;13.650;2023-02-15T04:42:09;102538.25;;;1.39;100.00
18918;BME280;9591;52.742;13.650;2023-02-15T04:44:55;102545.06;;;1.34;100.00
18918;BME280;9591;52.742;13.650;2023-02-15T04:47:42;102533.88;;;1.38;100.00
18918;BME280;9591;52.742;13.650;2023-02-15T04:50:30;102527.81;;;1.39;100.00
18918;BME280;9591;52.742;13.650;2023-02-15T04:53:17;102530.53;;;1.42;100.00
18918;BME280;9591;52.742;13.650;2023-02-15T04:56:04;102515.69;;;1.41;100.00
18918;BME280;9591;52.742;13.650;2023-02-15T04:58:51;102518.38;;;1.42;100.00
18918;BME280;9591;52.742;13.650;2023-02-15T05:01:37;102513.97;;;1.41;100.00
18918;BME280;9591;52.742;13.650;2023-02-15T05:04:24;102514.13;;;1.46;100.00
18918;BME280;9591;52.742;13.650;2023-02-15T05:07:12;102516.84;;;1.49;100.00
18918;BME280;9591;52.742;13.650;2023-02-15T05:10:00;102508.88;;;1.44;100.00
18918;BME280;9591;52.742;13.650;2023-02-15T05:12:47;102510.63;;;1.45;100.00
18918;BME280;9591;52.742;13.650;2023-02-15T05:15:34;102496.53;;;1.40;100.00
18918;BME280;9591;52.742;13.650;2023-02-15T05:18:23;102497.22;;;1.35;100.00
18918;BME280;9591;52.742;13.650;2023-02-15T05:21:10;102501.59;;;1.36;100.00
18918;BME280;9591;52.742;13.650;2023-02-15T05:24:00;102507.09;;;1.43;100.00
18918;BME280;9591;52.742;13.650;2023-02-15T05:27:13;102513.75;;;1.60;100.00
18918;BME280;9591;52.742;13.650;2023-02-15T05:30:20;102515.75;;;1.42;100.00
18918;BME280;9591;52.742;13.650;2023-02-15T05:33:07;102464.19;;;1.10;100.00
18918;BME280;9591;52.742;13.650;2023-02-15T05:35:54;102508.06;;;1.47;100.00
18918;BME280;9591;52.742;13.650;2023-02-15T05:38:40;102516.59;;;1.41;100.00
18918;BME280;9591;52.742;13.650;2023-02-15T05:41:29;102504.69;;;1.49;100.00
18918;BME280;9591;52.742;13.650;2023-02-15T05:44:16;102501.81;;;1.42;100.00
18918;BME280;9591;52.742;13.650;2023-02-15T05:47:02;102496.69;;;1.45;100.00
18918;BME280;9591;52.742;13.650;2023-02-15T05:49:52;102494.44;;;1.30;100.00
18918;BME280;9591;52.742;13.650;2023-02-15T05:52:39;102492.81;;;1.59;100.00
18918;BME280;9591;52.742;13.650;2023-02-15T05:55:25;102491.38;;;1.42;100.00
18918;BME280;9591;52.742;13.650;2023-02-15T05:58:13;102488.75;;;1.42;100.00
18918;BME280;9591;52.742;13.650;2023-02-15T06:01:07;102484.47;;;1.44;100.00
18918;BME280;9591;52.742;13.650;2023-02-15T06:03:54;102487.13;;;1.45;100.00
18918;BME280;9591;52.742;13.650;2023-02-15T06:06:41;102483.47;;;1.40;100.00
18918;BME280;9591;52.742;13.650;2023-02-15T06:09:28;102479.31;;;1.20;100.00
18918;BME280;9591;52.742;13.650;2023-02-15T06:12:15;102486.88;;;1.38;100.00
18918;BME280;9591;52.742;13.650;2023-02-15T06:15:04;102483.19;;;1.31;100.00
18918;BME280;9591;52.742;13.650;2023-02-15T06:17:51;102483.50;;;1.15;100.00
18918;BME280;9591;52.742;13.650;2023-02-15T06:20:38;102473.06;;;1.15;100.00
18918;BME280;9591;52.742;13.650;2023-02-15T06:23:25;102470.28;;;1.10;100.00
18918;BME280;9591;52.742;13.650;2023-02-15T06:26:12;102476.34;;;1.09;100.00
18918;BME280;9591;52.742;13.650;2023-02-15T06:28:58;102472.69;;;1.04;100.00
18918;BME280;9591;52.742;13.650;2023-02-15T06:31:47;102371.78;;;0.52;100.00
18918;BME280;9591;52.742;13.650;2023-02-15T06:34:33;102460.78;;;1.12;100.00
18918;BME280;9591;52.742;13.650;2023-02-15T06:37:21;102452.84;;;1.35;100.00
18918;BME280;9591;52.742;13.650;2023-02-15T06:40:10;102462.13;;;1.26;100.00
18918;BME280;9591;52.742;13.650;2023-02-15T06:42:58;102463.41;;;1.12;100.00
18918;BME280;9591;52.742;13.650;2023-02-15T06:45:47;102465.31;;;1.18;100.00
18918;BME280;9591;52.742;13.650;2023-02-15T06:48:36;102466.06;;;1.14;100.00
18918;BME280;9591;52.742;13.650;2023-02-15T06:51:23;102467.16;;;1.20;100.00
18918;BME280;9591;52.742;13.650;2023-02-15T06:54:10;102468.41;;;1.31;100.00
18918;BME280;9591;52.742;13.650;2023-02-15T06:56:57;102456.38;;;1.63;100.00
18918;BME280;9591;52.742;13.650;2023-02-15T06:59:43;102456.38;;;1.63;100.00
18918;BME280;9591;52.742;13.650;2023-02-15T07:02:30;102461.03;;;1.74;100.00
18918;BME280;9591;52.742;13.650;2023-02-15T07:05:18;102468.88;;;1.74;100.00
18918;BME280;9591;52.742;13.650;2023-02-15T07:08:05;102464.91;;;1.86;100.00
18918;BME280;9591;52.742;13.650;2023-02-15T07:10:53;102466.03;;;1.94;100.00
18918;BME280;9591;52.742;13.650;2023-02-15T07:14:01;102463.34;;;2.21;100.00
18918;BME280;9591;52.742;13.650;2023-02-15T07:16:48;102463.44;;;2.24;100.00
18918;BME280;9591;52.742;13.650;2023-02-15T07:19:35;102463.53;;;2.27;100.00
18918;BME280;9591;52.742;13.650;2023-02-15T07:22:23;102449.97;;;2.41;100.00
18918;BME280;9591;52.742;13.650;2023-02-15T07:25:11;102451.38;;;2.59;100.00
18918;BME280;9591;52.742;13.650;2023-02-15T07:27:59;102454.13;;;2.66;100.00
18918;BME280;9591;52.742;13.650;2023-02-15T07:30:47;102449.22;;;2.78;100.00
18918;BME280;9591;52.742;13.650;2023-02-15T07:33:34;102442.38;;;2.83;100.00
18918;BME280;9591;52.742;13.650;2023-02-15T07:36:21;102438.16;;;2.88;100.00
18918;BME280;9591;52.742;13.650;2023-02-15T07:39:09;102433.91;;;2.91;100.00
18918;BME280;9591;52.742;13.650;2023-02-15T07:41:56;102430.88;;;3.09;100.00
18918;BME280;9591;52.742;13.650;2023-02-15T07:44:48;102435.75;;;2.95;100.00
18918;BME280;9591;52.742;13.650;2023-02-15T07:47:34;102431.34;;;2.94;100.00
18918;BME280;9591;52.742;13.650;2023-02-15T07:50:21;102425.31;;;2.97;100.00
18918;BME280;9591;52.742;13.650;2023-02-15T07:53:08;102420.19;;;3.02;100.00
18918;BME280;9591;52.742;13.650;2023-02-15T07:55:58;102408.75;;;2.98;100.00
18918;BME280;9591;52.742;13.650;2023-02-15T07:58:46;102410.38;;;2.93;100.00
18918;BME280;9591;52.742;13.650;2023-02-15T08:01:40;102400.78;;;2.93;100.00
18918;BME280;9591;52.742;13.650;2023-02-15T08:04:27;102408.53;;;2.89;100.00
18918;BME280;9591;52.742;13.650;2023-02-15T08:07:14;102405.88;;;2.87;100.00
18918;BME280;9591;52.742;13.650;2023-02-15T08:10:01;102406.47;;;2.77;100.00
18918;BME280;9591;52.742;13.650;2023-02-15T08:12:50;102408.41;;;2.84;100.00
18918;BME280;9591;52.742;13.650;2023-02-15T08:15:38;102393.19;;;3.03;100.00
18918;BME280;9591;52.742;13.650;2023-02-15T08:18:25;102394.66;;;3.27;100.00
18918;BME280;9591;52.742;13.650;2023-02-15T08:21:13;102392.16;;;3.32;100.00
18918;BME280;9591;52.742;13.650;2023-02-15T08:24:02;102388.72;;;3.35;100.00
18918;BME280;9591;52.742;13.650;2023-02-15T08:26:51;102388.72;;;3.35;100.00
18918;BME280;9591;52.742;13.650;2023-02-15T08:29:41;102390.34;;;3.29;100.00
18918;BME280;9591;52.742;13.650;2023-02-15T08:32:29;102389.66;;;3.37;100.00
18918;BME280;9591;52.742;13.650;2023-02-15T08:35:16;102389.84;;;3.47;100.00
18918;BME280;9591;52.742;13.650;2023-02-15T08:38:04;102387.47;;;3.58;100.00
18918;BME280;9591;52.742;13.650;2023-02-15T08:40:51;102384.19;;;3.67;100.00
18918;BME280;9591;52.742;13.650;2023-02-15T08:43:38;102380.97;;;3.78;100.00
18918;BME280;9591;52.742;13.650;2023-02-15T08:46:28;102374.97;;;3.84;100.00
18918;BME280;9591;52.742;13.650;2023-02-15T08:49:16;102375.38;;;3.63;100.00
18918;BME280;9591;52.742;13.650;2023-02-15T08:52:05;102372.03;;;3.70;100.00
18918;BME280;9591;52.742;13.650;2023-02-15T08:54:52;102365.28;;;3.81;100.00
18918;BME280;9591;52.742;13.650;2023-02-15T08:57:38;102359.91;;;3.75;100.00
18918;BME280;9591;52.742;13.650;2023-02-15T09:00:30;102367.38;;;3.98;100.00
18918;BME280;9591;52.742;13.650;2023-02-15T09:03:18;102365.59;;;3.95;100.00
18918;BME280;9591;52.742;13.650;2023-02-15T09:06:06;102357.94;;;4.06;100.00
18918;BME280;9591;52.742;13.650;2023-02-15T09:08:53;102364.53;;;3.87;100.00
18918;BME280;9591;52.742;13.650;2023-02-15T09:11:41;102367.25;;;3.91;100.00
18918;BME280;9591;52.742;13.650;2023-02-15T09:14:28;102365.53;;;3.92;100.00
18918;BME280;9591;52.742;13.650;2023-02-15T09:17:15;102363.13;;;4.03;100.00
18918;BME280;9591;52.742;13.650;2023-02-15T09:20:04;102371.84;;;4.02;100.00
18918;BME280;9591;52.742;13.650;2023-02-15T09:22:52;102371.84;;;4.02;100.00
18918;BME280;9591;52.742;13.650;2023-02-15T09:25:43;102369.94;;;3.94;100.00
18918;BME280;9591;52.742;13.650;2023-02-15T09:28:30;102383.06;;;3.94;100.00
18918;BME280;9591;52.742;13.650;2023-02-15T09:31:20;102379.44;;;3.89;100.00
18918;BME280;9591;52.742;13.650;2023-02-15T09:34:08;102385.34;;;3.79;100.00
18918;BME280;9591;52.742;13.650;2023-02-15T09:36:56;102378.75;;;3.98;100.00
18918;BME280;9591;52.742;13.650;2023-02-15T09:39:44;102372.66;;;3.99;100.00
18918;BME280;9591;52.742;13.650;2023-02-15T09:42:47;102372.81;;;4.07;100.00
18918;BME280;9591;52.742;13.650;2023-02-15T09:45:57;102372.69;;;4.01;100.00
18918;BME280;9591;52.742;13.650;2023-02-15T09:48:52;102370.34;;;4.14;100.00
18918;BME280;9591;52.742;13.650;2023-02-15T09:52:04;102366.91;;;4.17;100.00
18918;BME280;9591;52.742;13.650;2023-02-15T09:55:06;102366.34;;;4.33;100.00
18918;BME280;9591;52.742;13.650;2023-02-15T09:58:05;102362.25;;;4.49;100.00
18918;BME280;9591;52.742;13.650;2023-02-15T10:00:58;102355.50;;;4.61;100.00
18918;BME280;9591;52.742;13.650;2023-02-15T10:04:03;102347.78;;;4.71;100.00
18918;BME280;9591;52.742;13.650;2023-02-15T10:07:01;102356.41;;;4.64;100.00
18918;BME280;9591;52.742;13.650;2023-02-15T10:10:06;102349.53;;;4.72;100.00
18918;BME280;9591;52.742;13.650;2023-02-15T10:13:09;102355.94;;;4.87;100.00
18918;BME280;9591;52.742;13.650;2023-02-15T10:16:12;102350.03;;;5.01;100.00
18918;BME280;9591;52.742;13.650;2023-02-15T10:19:12;102344.59;;;4.90;100.00
18918;BME280;9591;52.742;13.650;2023-02-15T10:22:14;102342.94;;;4.95;100.00
18918;BME280;9591;52.742;13.650;2023-02-15T10:25:27;102338.72;;;5.05;100.00
18918;BME280;9591;52.742;13.650;2023-02-15T10:28:19;102327.69;;;5.28;100.00
18918;BME280;9591;52.742;13.650;2023-02-15T10:31:15;102327.63;;;5.25;100.00
18918;BME280;9591;52.742;13.650;2023-02-15T10:34:17;102326.72;;;5.23;100.00
18918;BME280;9591;52.742;13.650;2023-02-15T10:37:17;102321.69;;;5.37;100.00
18918;BME280;9591;52.742;13.650;2023-02-15T10:40:16;102324.38;;;5.42;100.00
18918;BME280;9591;52.742;13.650;2023-02-15T10:43:20;102314.81;;;5.47;100.00
18918;BME280;9591;52.742;13.650;2023-02-15T10:46:19;102309.63;;;5.53;100.00
18918;BME280;9591;52.742;13.650;2023-02-15T10:49:34;102309.81;;;5.67;100.00
18918;BME280;9591;52.742;13.650;2023-02-15T10:52:35;102304.34;;;5.50;100.00
18918;BME280;9591;52.742;13.650;2023-02-15T10:55:37;102303.66;;;5.65;100.00
18918;BME280;9591;52.742;13.650;2023-02-15T10:58:39;102293.75;;;5.45;100.00
18918;BME280;9591;52.742;13.650;2023-02-15T11:01:33;102295.66;;;5.55;100.00
18918;BME280;9591;52.742;13.650;2023-02-15T11:04:38;102291.19;;;5.50;100.00
18918;BME280;9591;52.742;13.650;2023-02-15T11:07:29;102292.28;;;5.66;100.00
18918;BME280;9591;52.742;13.650;2023-02-15T11:10:28;102287.13;;;5.75;100.00
18918;BME280;9591;52.742;13.650;2023-02-15T11:13:18;102291.53;;;5.76;100.00
18918;BME280;9591;52.742;13.650;2023-02-15T11:16:11;102288.25;;;5.90;100.00
18918;BME280;9591;52.742;13.650;2023-02-15T11:19:06;102288.34;;;6.00;100.00
18918;BME280;9591;52.742;13.650;2023-02-15T11:21:59;102276.13;;;6.05;100.00
18918;BME280;9591;52.742;13.650;2023-02-15T11:24:48;102278.66;;;5.96;100.00
18918;BME280;9591;52.742;13.650;2023-02-15T11:27:38;102263.84;;;6.05;100.00
18918;BME280;9591;52.742;13.650;2023-02-15T11:30:33;102271.03;;;6.23;100.00
18918;BME280;9591;52.742;13.650;2023-02-15T11:33:30;102270.22;;;6.29;100.00
18918;BME280;9591;52.742;13.650;2023-02-15T11:36:23;102266.63;;;6.22;100.00
18918;BME280;9591;52.742;13.650;2023-02-15T11:39:14;102263.13;;;6.21;100.00
18918;BME280;9591;52.742;13.650;2023-02-15T11:42:09;102260.69;;;6.44;100.00
18918;BME280;9591;52.742;13.650;2023-02-15T11:45:02;102262.47;;;6.47;100.00
18918;BME280;9591;52.742;13.650;2023-02-15T11:47:52;102262.63;;;6.64;100.00
18918;BME280;9591;52.742;13.650;2023-02-15T11:50:43;102258.22;;;6.63;100.00
18918;BME280;9591;52.742;13.650;2023-02-15T11:53:34;102259.19;;;6.74;100.00
18918;BME280;9591;52.742;13.650;2023-02-15T11:56:26;102257.44;;;6.74;100.00
18918;BME280;9591;52.742;13.650;2023-02-15T11:59:21;102260.03;;;6.67;100.00
18918;BME280;9591;52.742;13.650;2023-02-15T12:02:16;102247.66;;;6.56;100.00
18918;BME280;9591;52.742;13.650;2023-02-15T12:05:13;102254.56;;;6.44;100.00
18918;BME280;9591;52.742;13.650;2023-02-15T12:08:12;102247.81;;;6.75;100.00
18918;BME280;9591;52.742;13.650;2023-02-15T12:11:07;102196.00;;;6.72;100.00
18918;BME280;9591;52.742;13.650;2023-02-15T12:13:59;102245.34;;;7.05;100.00
18918;BME280;9591;52.742;13.650;2023-02-15T12:16:51;102243.47;;;6.81;100.00
18918;BME280;9591;52.742;13.650;2023-02-15T12:19:40;102233.00;;;7.00;100.00
18918;BME280;9591;52.742;13.650;2023-02-15T12:22:29;102228.59;;;6.96;100.00
18918;BME280;9591;52.742;13.650;2023-02-15T12:25:23;102234.75;;;6.95;100.00
18918;BME280;9591;52.742;13.650;2023-02-15T12:28:25;102237.41;;;7.02;100.00
18918;BME280;9591;52.742;13.650;2023-02-15T12:31:20;102226.78;;;6.81;100.00
18918;BME280;9591;52.742;13.650;2023-02-15T12:34:12;102225.84;;;6.76;100.00
18918;BME280;9591;52.742;13.650;2023-02-15T12:37:02;102211.81;;;6.77;100.00
18918;BME280;9591;52.742;13.650;2023-02-15T12:39:56;102216.97;;;6.62;100.00
18918;BME280;9591;52.742;13.650;2023-02-15T12:42:45;102217.00;;;6.65;100.00
18918;BME280;9591;52.742;13.650;2023-02-15T12:45:33;102212.63;;;6.68;100.00
18918;BME280;9591;52.742;13.650;2023-02-15T12:48:20;102195.91;;;6.62;100.00
18918;BME280;9591;52.742;13.650;2023-02-15T12:51:08;102206.59;;;6.81;100.00
18918;BME280;9591;52.742;13.650;2023-02-15T12:53:56;102199.63;;;6.99;100.00
18918;BME280;9591;52.742;13.650;2023-02-15T12:56:46;102198.69;;;6.81;100.00
18918;BME280;9591;52.742;13.650;2023-02-15T12:59:34;102193.56;;;7.09;100.00
18918;BME280;9591;52.742;13.650;2023-02-15T13:02:28;102191.81;;;7.15;100.00
18918;BME280;9591;52.742;13.650;2023-02-15T13:05:19;102190.09;;;7.23;100.00
18918;BME280;9591;52.742;13.650;2023-02-15T13:08:11;102185.72;;;7.26;100.00
18918;BME280;9591;52.742;13.650;2023-02-15T13:11:02;102168.22;;;7.43;100.00
18918;BME280;9591;52.742;13.650;2023-02-15T13:13:51;102163.03;;;7.70;100.00
18918;BME280;9591;52.742;13.650;2023-02-15T13:16:43;102163.03;;;7.73;100.00
18918;BME280;9591;52.742;13.650;2023-02-15T13:19:33;102155.13;;;8.01;100.00
18918;BME280;9591;52.742;13.650;2023-02-15T13:22:25;102141.06;;;7.89;100.00
18918;BME280;9591;52.742;13.650;2023-02-15T13:25:18;102137.53;;;7.92;100.00
18918;BME280;9591;52.742;13.650;2023-02-15T13:28:06;102129.63;;;7.87;100.00
18918;BME280;9591;52.742;13.650;2023-02-15T13:30:57;102131.38;;;7.88;100.00
18918;BME280;9591;52.742;13.650;2023-02-15T13:33:50;102130.53;;;8.06;100.00
18918;BME280;9591;52.742;13.650;2023-02-15T13:36:42;102136.69;;;8.04;100.00
18918;BME280;9591;52.742;13.650;2023-02-15T13:39:35;102127.00;;;7.92;100.00
18918;BME280;9591;52.742;13.650;2023-02-15T13:42:30;102119.06;;;7.95;100.00
18918;BME280;9591;52.742;13.650;2023-02-15T13:45:33;102112.91;;;7.88;100.00
18918;BME280;9591;52.742;13.650;2023-02-15T13:48:28;102108.53;;;7.69;100.00
18918;BME280;9591;52.742;13.650;2023-02-15T13:51:40;102114.66;;;7.83;100.00
18918;BME280;9591;52.742;13.650;2023-02-15T13:54:40;102112.03;;;7.96;100.00
18918;BME280;9591;52.742;13.650;2023-02-15T13:57:46;102116.44;;;7.83;100.00
18918;BME280;9591;52.742;13.650;2023-02-15T14:00:44;102117.31;;;7.89;100.00
18918;BME280;9591;52.742;13.650;2023-02-15T14:03:56;102110.28;;;8.16;100.00
18918;BME280;9591;52.742;13.650;2023-02-15T14:10:42;102106.78;;;8.17;100.00
18918;BME280;9591;52.742;13.650;2023-02-15T14:13:49;102119.97;;;8.23;100.00
18918;BME280;9591;52.742;13.650;2023-02-15T14:16:45;102116.44;;;8.09;100.00
18918;BME280;9591;52.742;13.650;2023-02-15T14:19:53;102114.69;;;8.06;100.00
18918;BME280;9591;52.742;13.650;2023-02-15T14:22:44;102121.72;;;8.06;100.00
18918;BME280;9591;52.742;13.650;2023-02-15T14:25:39;102114.69;;;8.12;100.00
18918;BME280;9591;52.742;13.650;2023-02-15T14:28:31;102118.19;;;8.25;100.00
18918;BME280;9591;52.742;13.650;2023-02-15T14:31:35;102112.03;;;8.14;100.00
18918;BME280;9591;52.742;13.650;2023-02-15T14:34:36;102105.00;;;8.31;100.00
18918;BME280;9591;52.742;13.650;2023-02-15T14:37:38;102099.72;;;8.31;100.00
18918;BME280;9591;52.742;13.650;2023-02-15T14:40:34;102101.47;;;8.23;100.00
18918;BME280;9591;52.742;13.650;2023-02-15T14:43:51;102095.34;;;8.18;100.00
18918;BME280;9591;52.742;13.650;2023-02-15T14:46:46;102099.72;;;8.28;100.00
18918;BME280;9591;52.742;13.650;2023-02-15T14:49:37;102092.69;;;8.12;100.00
18918;BME280;9591;52.742;13.650;2023-02-15T14:52:24;102098.84;;;8.18;100.00
18918;BME280;9591;52.742;13.650;2023-02-15T14:55:35;102097.09;;;8.19;100.00
18918;BME280;9591;52.742;13.650;2023-02-15T14:58:23;102090.94;;;8.35;100.00
18918;BME280;9591;52.742;13.650;2023-02-15T15:01:10;102080.38;;;8.38;100.00
18918;BME280;9591;52.742;13.650;2023-02-15T15:04:00;102075.09;;;8.31;100.00
18918;BME280;9591;52.742;13.650;2023-02-15T15:06:59;102074.22;;;8.36;100.00